sensor_id;sensor_type;location;lat;lon;timestamp;P1;durP1;ratioP1;P2;durP2;ratioP2
2860;SDS011;1438;50.922;6.704;2022-09-16T00:00:51;11.67;;;2.27;;
2860;SDS011;1438;50.922;6.704;2022-09-16T00:03:17;4.20;;;1.60;;
2860;SDS011;1438;50.922;6.704;2022-09-16T00:05:44;5.03;;;1.57;;
2860;SDS011;1438;50.922;6.704;2022-09-16T00:08:11;4.40;;;1.60;;
2860;SDS011;1438;50.922;6.704;2022-09-16T00:10:38;3.20;;;1.57;;
2860;SDS011;1438;50.922;6.704;2022-09-16T00:13:04;4.43;;;1.40;;
2860;SDS011;1438;50.922;6.704;2022-09-16T00:15:30;4.90;;;3.30;;
2860;SDS011;1438;50.922;6.704;2022-09-16T00:17:56;5.30;;;1.43;;
2860;SDS011;1438;50.922;6.704;2022-09-16T00:20:21;3.50;;;1.60;;
2860;SDS011;1438;50.922;6.704;2022-09-16T00:22:47;5.00;;;2.13;;
2860;SDS011;1438;50.922;6.704;2022-09-16T00:25:12;2.60;;;1.33;;
2860;SDS011;1438;50.922;6.704;2022-09-16T00:27:38;5.07;;;1.43;;
2860;SDS011;1438;50.922;6.704;2022-09-16T00:30:04;4.00;;;1.40;;
2860;SDS011;1438;50.922;6.704;2022-09-16T00:32:30;5.53;;;1.50;;
2860;SDS011;1438;50.922;6.704;2022-09-16T00:34:55;3.77;;;1.40;;
2860;SDS011;1438;50.922;6.704;2022-09-16T00:37:21;5.23;;;2.03;;
2860;SDS011;1438;50.922;6.704;2022-09-16T00:39:47;2.70;;;1.10;;
2860;SDS011;1438;50.922;6.704;2022-09-16T00:42:13;13.77;;;1.90;;
2860;SDS011;1438;50.922;6.704;2022-09-16T00:47:50;2.80;;;1.80;;
2860;SDS011;1438;50.922;6.704;2022-09-16T00:53:19;3.83;;;2.20;;
2860;SDS011;1438;50.922;6.704;2022-09-16T00:55:52;5.53;;;1.70;;
2860;SDS011;1438;50.922;6.704;2022-09-16T00:58:36;5.57;;;1.40;;
2860;SDS011;1438;50.922;6.704;2022-09-16T01:01:28;7.83;;;1.87;;
2860;SDS011;1438;50.922;6.704;2022-09-16T01:03:55;2.60;;;1.40;;
2860;SDS011;1438;50.922;6.704;2022-09-16T01:06:28;6.00;;;1.40;;
2860;SDS011;1438;50.922;6.704;2022-09-16T01:08:56;7.23;;;1.53;;
2860;SDS011;1438;50.922;6.704;2022-09-16T01:11:23;4.53;;;1.23;;
2860;SDS011;1438;50.922;6.704;2022-09-16T01:13:48;8.07;;;1.80;;
2860;SDS011;1438;50.922;6.704;2022-09-16T01:22:04;7.30;;;1.60;;
2860;SDS011;1438;50.922;6.704;2022-09-16T01:24:51;4.00;;;1.50;;
2860;SDS011;1438;50.922;6.704;2022-09-16T01:27:32;3.60;;;1.60;;
2860;SDS011;1438;50.922;6.704;2022-09-16T01:30:33;7.50;;;1.70;;
2860;SDS011;1438;50.922;6.704;2022-09-16T01:33:11;3.17;;;1.13;;
2860;SDS011;1438;50.922;6.704;2022-09-16T01:35:56;4.07;;;1.70;;
2860;SDS011;1438;50.922;6.704;2022-09-16T01:41:09;5.43;;;1.37;;
2860;SDS011;1438;50.922;6.704;2022-09-16T01:46:24;4.87;;;1.47;;
2860;SDS011;1438;50.922;6.704;2022-09-16T01:52:00;1.87;;;1.20;;
2860;SDS011;1438;50.922;6.704;2022-09-16T01:54:58;4.37;;;0.93;;
2860;SDS011;1438;50.922;6.704;2022-09-16T02:00:19;4.00;;;1.43;;
2860;SDS011;1438;50.922;6.704;2022-09-16T02:05:16;5.10;;;1.87;;
2860;SDS011;1438;50.922;6.704;2022-09-16T02:07:55;6.83;;;2.03;;
2860;SDS011;1438;50.922;6.704;2022-09-16T02:10:26;5.63;;;1.53;;
2860;SDS011;1438;50.922;6.704;2022-09-16T02:13:01;9.63;;;1.50;;
2860;SDS011;1438;50.922;6.704;2022-09-16T02:15:41;6.40;;;1.53;;
2860;SDS011;1438;50.922;6.704;2022-09-16T02:18:10;5.40;;;2.03;;
2860;SDS011;1438;50.922;6.704;2022-09-16T02:20:39;2.77;;;1.17;;
2860;SDS011;1438;50.922;6.704;2022-09-16T02:23:11;2.60;;;1.33;;
2860;SDS011;1438;50.922;6.704;2022-09-16T02:25:47;5.00;;;1.20;;
2860;SDS011;1438;50.922;6.704;2022-09-16T02:28:29;5.87;;;1.30;;
2860;SDS011;1438;50.922;6.704;2022-09-16T02:31:00;2.97;;;1.63;;
2860;SDS011;1438;50.922;6.704;2022-09-16T02:33:30;5.80;;;1.90;;
2860;SDS011;1438;50.922;6.704;2022-09-16T02:36:01;2.90;;;1.43;;
2860;SDS011;1438;50.922;6.704;2022-09-16T02:38:29;9.00;;;1.80;;
2860;SDS011;1438;50.922;6.704;2022-09-16T02:41:00;8.57;;;2.10;;
2860;SDS011;1438;50.922;6.704;2022-09-16T02:43:27;3.20;;;1.93;;
2860;SDS011;1438;50.922;6.704;2022-09-16T02:56:46;4.43;;;1.80;;
2860;SDS011;1438;50.922;6.704;2022-09-16T02:59:12;11.60;;;2.30;;
2860;SDS011;1438;50.922;6.704;2022-09-16T03:01:42;8.57;;;1.90;;
2860;SDS011;1438;50.922;6.704;2022-09-16T03:04:09;5.67;;;2.20;;
2860;SDS011;1438;50.922;6.704;2022-09-16T03:06:38;8.20;;;2.10;;
2860;SDS011;1438;50.922;6.704;2022-09-16T03:09:04;7.97;;;1.77;;
2860;SDS011;1438;50.922;6.704;2022-09-16T03:23:24;8.60;;;2.03;;
2860;SDS011;1438;50.922;6.704;2022-09-16T03:26:19;5.57;;;2.13;;
2860;SDS011;1438;50.922;6.704;2022-09-16T03:32:05;3.93;;;1.90;;
2860;SDS011;1438;50.922;6.704;2022-09-16T03:34:37;10.53;;;2.83;;
2860;SDS011;1438;50.922;6.704;2022-09-16T03:37:08;7.80;;;2.97;;
2860;SDS011;1438;50.922;6.704;2022-09-16T03:39:37;3.30;;;2.57;;
2860;SDS011;1438;50.922;6.704;2022-09-16T03:42:04;7.07;;;2.60;;
2860;SDS011;1438;50.922;6.704;2022-09-16T03:44:36;6.30;;;2.57;;
2860;SDS011;1438;50.922;6.704;2022-09-16T03:47:04;7.90;;;2.70;;
2860;SDS011;1438;50.922;6.704;2022-09-16T03:49:31;2.67;;;1.60;;
2860;SDS011;1438;50.922;6.704;2022-09-16T03:51:57;6.07;;;2.60;;
2860;SDS011;1438;50.922;6.704;2022-09-16T03:54:23;11.53;;;3.00;;
2860;SDS011;1438;50.922;6.704;2022-09-16T03:56:49;9.60;;;2.50;;
2860;SDS011;1438;50.922;6.704;2022-09-16T03:59:15;15.10;;;2.77;;
2860;SDS011;1438;50.922;6.704;2022-09-16T04:01:41;6.10;;;2.27;;
2860;SDS011;1438;50.922;6.704;2022-09-16T04:04:07;6.30;;;2.23;;
2860;SDS011;1438;50.922;6.704;2022-09-16T04:06:33;23.40;;;3.27;;
2860;SDS011;1438;50.922;6.704;2022-09-16T04:09:00;8.83;;;2.10;;
2860;SDS011;1438;50.922;6.704;2022-09-16T04:11:27;5.13;;;2.30;;
2860;SDS011;1438;50.922;6.704;2022-09-16T04:13:53;7.47;;;2.20;;
2860;SDS011;1438;50.922;6.704;2022-09-16T04:16:20;9.57;;;2.40;;
2860;SDS011;1438;50.922;6.704;2022-09-16T04:18:46;8.03;;;2.03;;
2860;SDS011;1438;50.922;6.704;2022-09-16T04:21:12;8.30;;;2.23;;
2860;SDS011;1438;50.922;6.704;2022-09-16T04:23:37;11.60;;;3.10;;
2860;SDS011;1438;50.922;6.704;2022-09-16T04:26:03;5.30;;;1.67;;
2860;SDS011;1438;50.922;6.704;2022-09-16T04:28:30;4.20;;;2.27;;
2860;SDS011;1438;50.922;6.704;2022-09-16T04:31:03;4.00;;;2.13;;
2860;SDS011;1438;50.922;6.704;2022-09-16T04:33:36;6.10;;;2.50;;
2860;SDS011;1438;50.922;6.704;2022-09-16T04:36:03;6.80;;;2.00;;
2860;SDS011;1438;50.922;6.704;2022-09-16T04:38:29;8.17;;;1.93;;
2860;SDS011;1438;50.922;6.704;2022-09-16T04:40:59;7.60;;;2.33;;
2860;SDS011;1438;50.922;6.704;2022-09-16T04:43:29;9.47;;;2.30;;
2860;SDS011;1438;50.922;6.704;2022-09-16T04:45:55;9.63;;;2.47;;
2860;SDS011;1438;50.922;6.704;2022-09-16T04:48:21;4.90;;;2.40;;
2860;SDS011;1438;50.922;6.704;2022-09-16T04:50:46;3.73;;;2.07;;
2860;SDS011;1438;50.922;6.704;2022-09-16T04:53:12;8.20;;;2.40;;
2860;SDS011;1438;50.922;6.704;2022-09-16T04:55:38;8.03;;;2.27;;
2860;SDS011;1438;50.922;6.704;2022-09-16T04:58:03;8.03;;;2.47;;
2860;SDS011;1438;50.922;6.704;2022-09-16T05:00:29;8.97;;;2.03;;
2860;SDS011;1438;50.922;6.704;2022-09-16T05:02:54;8.20;;;2.00;;
2860;SDS011;1438;50.922;6.704;2022-09-16T05:05:20;8.70;;;2.40;;
2860;SDS011;1438;50.922;6.704;2022-09-16T05:07:46;4.40;;;2.13;;
2860;SDS011;1438;50.922;6.704;2022-09-16T05:10:11;9.73;;;2.73;;
2860;SDS011;1438;50.922;6.704;2022-09-16T05:12:37;9.60;;;2.50;;
2860;SDS011;1438;50.922;6.704;2022-09-16T05:15:03;8.63;;;1.90;;
2860;SDS011;1438;50.922;6.704;2022-09-16T05:17:30;9.20;;;1.73;;
2860;SDS011;1438;50.922;6.704;2022-09-16T05:19:56;8.03;;;2.03;;
2860;SDS011;1438;50.922;6.704;2022-09-16T05:22:22;7.70;;;1.90;;
2860;SDS011;1438;50.922;6.704;2022-09-16T05:24:47;4.93;;;2.80;;
2860;SDS011;1438;50.922;6.704;2022-09-16T05:27:13;9.27;;;2.90;;
2860;SDS011;1438;50.922;6.704;2022-09-16T05:29:39;8.80;;;2.43;;
2860;SDS011;1438;50.922;6.704;2022-09-16T05:32:05;8.63;;;3.13;;
2860;SDS011;1438;50.922;6.704;2022-09-16T05:34:31;8.40;;;3.30;;
2860;SDS011;1438;50.922;6.704;2022-09-16T05:37:00;16.33;;;2.40;;
2860;SDS011;1438;50.922;6.704;2022-09-16T05:39:25;7.50;;;2.27;;
2860;SDS011;1438;50.922;6.704;2022-09-16T05:41:52;12.63;;;2.53;;
2860;SDS011;1438;50.922;6.704;2022-09-16T05:44:23;13.20;;;3.27;;
2860;SDS011;1438;50.922;6.704;2022-09-16T05:46:49;8.90;;;2.40;;
2860;SDS011;1438;50.922;6.704;2022-09-16T05:49:15;6.10;;;2.10;;
2860;SDS011;1438;50.922;6.704;2022-09-16T05:51:44;9.40;;;2.47;;
2860;SDS011;1438;50.922;6.704;2022-09-16T05:54:11;8.27;;;1.97;;
2860;SDS011;1438;50.922;6.704;2022-09-16T05:56:36;7.50;;;1.90;;
2860;SDS011;1438;50.922;6.704;2022-09-16T05:59:02;7.30;;;1.80;;
2860;SDS011;1438;50.922;6.704;2022-09-16T06:01:29;5.20;;;1.93;;
2860;SDS011;1438;50.922;6.704;2022-09-16T06:03:56;6.37;;;2.07;;
2860;SDS011;1438;50.922;6.704;2022-09-16T06:06:28;7.40;;;1.97;;
2860;SDS011;1438;50.922;6.704;2022-09-16T06:08:56;2.33;;;1.43;;
2860;SDS011;1438;50.922;6.704;2022-09-16T06:11:28;2.13;;;1.50;;
2860;SDS011;1438;50.922;6.704;2022-09-16T06:13:58;5.50;;;1.53;;
2860;SDS011;1438;50.922;6.704;2022-09-16T06:16:26;8.00;;;2.47;;
2860;SDS011;1438;50.922;6.704;2022-09-16T06:18:52;10.87;;;2.10;;
2860;SDS011;1438;50.922;6.704;2022-09-16T06:21:19;3.17;;;2.00;;
2860;SDS011;1438;50.922;6.704;2022-09-16T06:23:45;6.80;;;1.80;;
2860;SDS011;1438;50.922;6.704;2022-09-16T06:26:14;10.87;;;1.60;;
2860;SDS011;1438;50.922;6.704;2022-09-16T06:28:42;9.50;;;2.03;;
2860;SDS011;1438;50.922;6.704;2022-09-16T06:31:18;7.97;;;1.80;;
2860;SDS011;1438;50.922;6.704;2022-09-16T06:33:45;7.07;;;1.93;;
2860;SDS011;1438;50.922;6.704;2022-09-16T06:36:16;12.47;;;1.90;;
2860;SDS011;1438;50.922;6.704;2022-09-16T06:38:43;8.53;;;1.80;;
2860;SDS011;1438;50.922;6.704;2022-09-16T06:41:10;3.47;;;1.40;;
2860;SDS011;1438;50.922;6.704;2022-09-16T06:43:37;6.00;;;1.33;;
2860;SDS011;1438;50.922;6.704;2022-09-16T06:46:07;8.57;;;2.10;;
2860;SDS011;1438;50.922;6.704;2022-09-16T06:48:37;4.30;;;1.60;;
2860;SDS011;1438;50.922;6.704;2022-09-16T06:51:05;6.53;;;1.97;;
2860;SDS011;1438;50.922;6.704;2022-09-16T06:53:33;8.87;;;1.70;;
2860;SDS011;1438;50.922;6.704;2022-09-16T06:56:00;8.97;;;1.60;;
2860;SDS011;1438;50.922;6.704;2022-09-16T06:58:31;3.33;;;1.43;;
2860;SDS011;1438;50.922;6.704;2022-09-16T07:00:57;6.90;;;1.90;;
2860;SDS011;1438;50.922;6.704;2022-09-16T07:03:23;8.17;;;2.50;;
2860;SDS011;1438;50.922;6.704;2022-09-16T07:05:59;3.57;;;1.30;;
2860;SDS011;1438;50.922;6.704;2022-09-16T07:08:27;4.60;;;1.10;;
2860;SDS011;1438;50.922;6.704;2022-09-16T07:10:54;4.30;;;1.83;;
2860;SDS011;1438;50.922;6.704;2022-09-16T07:13:21;4.70;;;1.77;;
2860;SDS011;1438;50.922;6.704;2022-09-16T07:15:47;6.10;;;1.40;;
2860;SDS011;1438;50.922;6.704;2022-09-16T07:18:12;5.67;;;1.30;;
2860;SDS011;1438;50.922;6.704;2022-09-16T07:20:38;5.60;;;1.50;;
2860;SDS011;1438;50.922;6.704;2022-09-16T07:23:03;8.37;;;1.93;;
2860;SDS011;1438;50.922;6.704;2022-09-16T07:25:29;3.47;;;1.60;;
2860;SDS011;1438;50.922;6.704;2022-09-16T07:27:55;4.23;;;1.53;;
2860;SDS011;1438;50.922;6.704;2022-09-16T07:30:21;3.10;;;1.33;;
2860;SDS011;1438;50.922;6.704;2022-09-16T07:32:47;5.20;;;1.40;;
2860;SDS011;1438;50.922;6.704;2022-09-16T07:35:12;3.97;;;1.70;;
2860;SDS011;1438;50.922;6.704;2022-09-16T07:37:38;5.03;;;1.33;;
2860;SDS011;1438;50.922;6.704;2022-09-16T07:40:04;6.83;;;1.20;;
2860;SDS011;1438;50.922;6.704;2022-09-16T07:42:30;3.57;;;1.10;;
2860;SDS011;1438;50.922;6.704;2022-09-16T07:44:56;1.77;;;1.00;;
2860;SDS011;1438;50.922;6.704;2022-09-16T07:47:21;5.43;;;1.30;;
2860;SDS011;1438;50.922;6.704;2022-09-16T07:49:47;3.33;;;1.53;;
2860;SDS011;1438;50.922;6.704;2022-09-16T07:52:13;1.67;;;0.93;;
2860;SDS011;1438;50.922;6.704;2022-09-16T07:54:40;4.07;;;1.07;;
2860;SDS011;1438;50.922;6.704;2022-09-16T07:57:05;5.03;;;1.00;;
2860;SDS011;1438;50.922;6.704;2022-09-16T07:59:31;6.83;;;2.23;;
2860;SDS011;1438;50.922;6.704;2022-09-16T08:01:57;7.13;;;1.20;;
2860;SDS011;1438;50.922;6.704;2022-09-16T08:04:22;3.73;;;0.90;;
2860;SDS011;1438;50.922;6.704;2022-09-16T08:06:48;1.70;;;0.93;;
2860;SDS011;1438;50.922;6.704;2022-09-16T08:09:14;10.20;;;1.43;;
2860;SDS011;1438;50.922;6.704;2022-09-16T08:11:40;3.90;;;1.20;;
2860;SDS011;1438;50.922;6.704;2022-09-16T08:14:05;4.47;;;1.20;;
2860;SDS011;1438;50.922;6.704;2022-09-16T08:16:31;6.50;;;1.53;;
2860;SDS011;1438;50.922;6.704;2022-09-16T08:18:57;4.10;;;1.20;;
2860;SDS011;1438;50.922;6.704;2022-09-16T08:21:24;3.63;;;1.03;;
2860;SDS011;1438;50.922;6.704;2022-09-16T08:23:52;5.00;;;1.40;;
2860;SDS011;1438;50.922;6.704;2022-09-16T08:26:19;5.07;;;1.70;;
2860;SDS011;1438;50.922;6.704;2022-09-16T08:28:45;2.17;;;0.93;;
2860;SDS011;1438;50.922;6.704;2022-09-16T08:31:13;2.67;;;1.10;;
2860;SDS011;1438;50.922;6.704;2022-09-16T08:33:39;3.50;;;0.93;;
2860;SDS011;1438;50.922;6.704;2022-09-16T08:36:16;3.80;;;0.70;;
2860;SDS011;1438;50.922;6.704;2022-09-16T08:38:44;2.07;;;0.70;;
2860;SDS011;1438;50.922;6.704;2022-09-16T08:44:15;7.00;;;1.77;;
2860;SDS011;1438;50.922;6.704;2022-09-16T08:46:53;1.33;;;0.90;;
2860;SDS011;1438;50.922;6.704;2022-09-16T08:51:52;3.10;;;0.87;;
2860;SDS011;1438;50.922;6.704;2022-09-16T08:54:30;2.70;;;0.97;;
2860;SDS011;1438;50.922;6.704;2022-09-16T08:57:02;1.73;;;0.70;;
2860;SDS011;1438;50.922;6.704;2022-09-16T08:59:35;1.80;;;0.90;;
2860;SDS011;1438;50.922;6.704;2022-09-16T09:05:00;4.20;;;0.80;;
2860;SDS011;1438;50.922;6.704;2022-09-16T09:07:46;5.60;;;1.10;;
2860;SDS011;1438;50.922;6.704;2022-09-16T09:16:00;7.23;;;1.00;;
2860;SDS011;1438;50.922;6.704;2022-09-16T09:24:04;1.43;;;0.67;;
2860;SDS011;1438;50.922;6.704;2022-09-16T09:26:52;2.77;;;0.90;;
2860;SDS011;1438;50.922;6.704;2022-09-16T09:40:38;4.20;;;0.83;;
2860;SDS011;1438;50.922;6.704;2022-09-16T09:46:03;1.60;;;0.80;;
2860;SDS011;1438;50.922;6.704;2022-09-16T09:48:50;2.87;;;1.00;;
2860;SDS011;1438;50.922;6.704;2022-09-16T09:51:44;3.40;;;0.80;;
2860;SDS011;1438;50.922;6.704;2022-09-16T09:56:50;2.73;;;1.10;;
2860;SDS011;1438;50.922;6.704;2022-09-16T09:59:36;2.37;;;0.80;;
2860;SDS011;1438;50.922;6.704;2022-09-16T10:02:16;4.00;;;1.43;;
2860;SDS011;1438;50.922;6.704;2022-09-16T10:04:46;2.87;;;0.70;;
2860;SDS011;1438;50.922;6.704;2022-09-16T10:07:13;0.80;;;0.60;;
2860;SDS011;1438;50.922;6.704;2022-09-16T10:09:46;6.00;;;1.20;;
2860;SDS011;1438;50.922;6.704;2022-09-16T10:12:30;1.47;;;0.83;;
2860;SDS011;1438;50.922;6.704;2022-09-16T10:14:59;3.00;;;0.97;;
2860;SDS011;1438;50.922;6.704;2022-09-16T10:17:30;5.57;;;0.80;;
2860;SDS011;1438;50.922;6.704;2022-09-16T10:19:59;3.00;;;0.80;;
2860;SDS011;1438;50.922;6.704;2022-09-16T10:22:51;3.60;;;1.10;;
2860;SDS011;1438;50.922;6.704;2022-09-16T10:25:32;3.83;;;0.80;;
2860;SDS011;1438;50.922;6.704;2022-09-16T10:27:59;2.20;;;0.90;;
2860;SDS011;1438;50.922;6.704;2022-09-16T10:30:27;1.87;;;0.97;;
2860;SDS011;1438;50.922;6.704;2022-09-16T10:33:00;5.90;;;1.23;;
2860;SDS011;1438;50.922;6.704;2022-09-16T10:35:36;3.60;;;0.90;;
2860;SDS011;1438;50.922;6.704;2022-09-16T10:38:04;2.50;;;1.30;;
2860;SDS011;1438;50.922;6.704;2022-09-16T10:40:37;3.17;;;1.00;;
2860;SDS011;1438;50.922;6.704;2022-09-16T10:43:05;2.50;;;1.00;;
2860;SDS011;1438;50.922;6.704;2022-09-16T10:45:42;2.37;;;0.90;;
2860;SDS011;1438;50.922;6.704;2022-09-16T10:48:12;3.03;;;0.80;;
2860;SDS011;1438;50.922;6.704;2022-09-16T10:51:01;1.97;;;1.00;;
2860;SDS011;1438;50.922;6.704;2022-09-16T10:53:33;4.50;;;0.90;;
2860;SDS011;1438;50.922;6.704;2022-09-16T10:56:02;2.30;;;0.80;;
2860;SDS011;1438;50.922;6.704;2022-09-16T10:58:30;2.50;;;0.70;;
2860;SDS011;1438;50.922;6.704;2022-09-16T11:06:05;3.63;;;0.83;;
2860;SDS011;1438;50.922;6.704;2022-09-16T11:13:56;1.60;;;0.60;;
2860;SDS011;1438;50.922;6.704;2022-09-16T11:18:56;1.63;;;0.60;;
2860;SDS011;1438;50.922;6.704;2022-09-16T11:22:00;2.53;;;0.90;;
2860;SDS011;1438;50.922;6.704;2022-09-16T11:37:56;1.13;;;0.93;;
2860;SDS011;1438;50.922;6.704;2022-09-16T11:45:57;5.97;;;1.00;;
2860;SDS011;1438;50.922;6.704;2022-09-16T11:48:51;2.43;;;1.00;;
2860;SDS011;1438;50.922;6.704;2022-09-16T11:51:29;1.90;;;0.90;;
2860;SDS011;1438;50.922;6.704;2022-09-16T11:54:20;3.03;;;0.93;;
2860;SDS011;1438;50.922;6.704;2022-09-16T11:57:08;5.00;;;0.97;;
2860;SDS011;1438;50.922;6.704;2022-09-16T12:02:45;2.77;;;0.77;;
2860;SDS011;1438;50.922;6.704;2022-09-16T12:08:02;1.80;;;0.83;;
2860;SDS011;1438;50.922;6.704;2022-09-16T12:10:55;2.00;;;0.80;;
2860;SDS011;1438;50.922;6.704;2022-09-16T12:13:44;3.40;;;1.30;;
2860;SDS011;1438;50.922;6.704;2022-09-16T12:16:18;3.00;;;1.40;;
2860;SDS011;1438;50.922;6.704;2022-09-16T12:18:48;11.83;;;2.33;;
2860;SDS011;1438;50.922;6.704;2022-09-16T12:21:31;6.67;;;1.40;;
2860;SDS011;1438;50.922;6.704;2022-09-16T12:24:05;5.97;;;1.40;;
2860;SDS011;1438;50.922;6.704;2022-09-16T12:26:39;5.17;;;1.30;;
2860;SDS011;1438;50.922;6.704;2022-09-16T12:29:15;5.40;;;1.80;;
2860;SDS011;1438;50.922;6.704;2022-09-16T12:32:01;4.53;;;1.20;;
2860;SDS011;1438;50.922;6.704;2022-09-16T12:34:43;2.57;;;1.00;;
2860;SDS011;1438;50.922;6.704;2022-09-16T12:40:01;1.40;;;1.07;;
2860;SDS011;1438;50.922;6.704;2022-09-16T12:42:34;1.23;;;1.07;;
2860;SDS011;1438;50.922;6.704;2022-09-16T12:48:17;1.17;;;0.90;;
2860;SDS011;1438;50.922;6.704;2022-09-16T12:56:42;4.70;;;1.30;;
2860;SDS011;1438;50.922;6.704;2022-09-16T12:59:36;5.10;;;1.30;;
2860;SDS011;1438;50.922;6.704;2022-09-16T13:02:23;1.30;;;0.90;;
2860;SDS011;1438;50.922;6.704;2022-09-16T13:04:54;2.30;;;0.77;;
2860;SDS011;1438;50.922;6.704;2022-09-16T13:07:31;3.05;;;0.80;;
2860;SDS011;1438;50.922;6.704;2022-09-16T13:10:16;4.95;;;0.75;;
2860;SDS011;1438;50.922;6.704;2022-09-16T13:12:51;1.83;;;0.70;;
2860;SDS011;1438;50.922;6.704;2022-09-16T13:15:28;5.00;;;1.00;;
2860;SDS011;1438;50.922;6.704;2022-09-16T13:20:40;2.90;;;0.70;;
2860;SDS011;1438;50.922;6.704;2022-09-16T13:23:26;1.40;;;0.73;;
2860;SDS011;1438;50.922;6.704;2022-09-16T13:25:58;1.88;;;0.70;;
2860;SDS011;1438;50.922;6.704;2022-09-16T13:33:40;2.70;;;0.80;;
2860;SDS011;1438;50.922;6.704;2022-09-16T13:36:15;2.58;;;0.73;;
2860;SDS011;1438;50.922;6.704;2022-09-16T13:38:51;5.70;;;0.60;;
2860;SDS011;1438;50.922;6.704;2022-09-16T13:41:34;4.93;;;0.80;;
2860;SDS011;1438;50.922;6.704;2022-09-16T13:47:06;2.70;;;0.90;;
2860;SDS011;1438;50.922;6.704;2022-09-16T13:49:54;1.13;;;0.70;;
2860;SDS011;1438;50.922;6.704;2022-09-16T13:54:54;2.83;;;0.80;;
2860;SDS011;1438;50.922;6.704;2022-09-16T14:13:49;2.70;;;1.10;;
2860;SDS011;1438;50.922;6.704;2022-09-16T14:16:21;1.93;;;0.70;;
2860;SDS011;1438;50.922;6.704;2022-09-16T14:21:22;2.23;;;0.80;;
2860;SDS011;1438;50.922;6.704;2022-09-16T14:23:48;2.17;;;0.80;;
2860;SDS011;1438;50.922;6.704;2022-09-16T14:28:41;4.73;;;0.80;;
2860;SDS011;1438;50.922;6.704;2022-09-16T14:31:08;2.20;;;0.77;;
2860;SDS011;1438;50.922;6.704;2022-09-16T14:33:51;2.17;;;1.00;;
2860;SDS011;1438;50.922;6.704;2022-09-16T14:36:22;4.10;;;1.10;;
2860;SDS011;1438;50.922;6.704;2022-09-16T14:39:00;0.77;;;0.60;;
2860;SDS011;1438;50.922;6.704;2022-09-16T14:41:40;1.80;;;0.80;;
2860;SDS011;1438;50.922;6.704;2022-09-16T14:44:17;3.90;;;1.00;;
2860;SDS011;1438;50.922;6.704;2022-09-16T14:46:44;4.77;;;0.83;;
2860;SDS011;1438;50.922;6.704;2022-09-16T14:49:13;1.20;;;0.73;;
2860;SDS011;1438;50.922;6.704;2022-09-16T14:51:50;2.70;;;0.70;;
2860;SDS011;1438;50.922;6.704;2022-09-16T14:54:20;1.30;;;0.70;;
2860;SDS011;1438;50.922;6.704;2022-09-16T14:57:21;2.10;;;0.87;;
2860;SDS011;1438;50.922;6.704;2022-09-16T14:59:41;0.83;;;0.60;;
2860;SDS011;1438;50.922;6.704;2022-09-16T15:02:12;2.10;;;0.67;;
2860;SDS011;1438;50.922;6.704;2022-09-16T15:04:38;2.40;;;0.70;;
2860;SDS011;1438;50.922;6.704;2022-09-16T15:07:11;1.27;;;0.90;;
2860;SDS011;1438;50.922;6.704;2022-09-16T15:10:25;1.13;;;0.50;;
2860;SDS011;1438;50.922;6.704;2022-09-16T15:12:34;1.93;;;0.90;;
2860;SDS011;1438;50.922;6.704;2022-09-16T15:15:09;3.03;;;0.87;;
2860;SDS011;1438;50.922;6.704;2022-09-16T15:17:53;1.23;;;0.60;;
2860;SDS011;1438;50.922;6.704;2022-09-16T15:20:32;3.60;;;0.90;;
2860;SDS011;1438;50.922;6.704;2022-09-16T15:23:02;2.33;;;0.70;;
2860;SDS011;1438;50.922;6.704;2022-09-16T15:25:29;2.97;;;1.00;;
2860;SDS011;1438;50.922;6.704;2022-09-16T15:28:13;2.70;;;0.80;;
2860;SDS011;1438;50.922;6.704;2022-09-16T15:30:45;1.00;;;0.63;;
2860;SDS011;1438;50.922;6.704;2022-09-16T15:35:58;1.47;;;0.70;;
2860;SDS011;1438;50.922;6.704;2022-09-16T15:38:25;3.63;;;0.90;;
2860;SDS011;1438;50.922;6.704;2022-09-16T15:41:04;2.43;;;0.77;;
2860;SDS011;1438;50.922;6.704;2022-09-16T15:43:42;1.37;;;0.67;;
2860;SDS011;1438;50.922;6.704;2022-09-16T15:46:13;2.10;;;0.80;;
2860;SDS011;1438;50.922;6.704;2022-09-16T15:48:43;1.73;;;0.90;;
2860;SDS011;1438;50.922;6.704;2022-09-16T15:51:22;1.30;;;0.60;;
2860;SDS011;1438;50.922;6.704;2022-09-16T15:54:15;1.13;;;0.60;;
2860;SDS011;1438;50.922;6.704;2022-09-16T15:56:54;1.50;;;0.80;;
2860;SDS011;1438;50.922;6.704;2022-09-16T16:01:52;2.10;;;1.10;;
2860;SDS011;1438;50.922;6.704;2022-09-16T16:04:29;2.10;;;1.53;;
2860;SDS011;1438;50.922;6.704;2022-09-16T16:06:57;1.60;;;0.80;;
2860;SDS011;1438;50.922;6.704;2022-09-16T16:09:28;2.17;;;1.20;;
2860;SDS011;1438;50.922;6.704;2022-09-16T16:11:58;1.90;;;0.97;;
2860;SDS011;1438;50.922;6.704;2022-09-16T16:14:34;3.10;;;0.90;;
2860;SDS011;1438;50.922;6.704;2022-09-16T16:17:05;2.80;;;1.20;;
2860;SDS011;1438;50.922;6.704;2022-09-16T16:19:36;2.03;;;0.90;;
2860;SDS011;1438;50.922;6.704;2022-09-16T16:22:03;1.63;;;0.80;;
2860;SDS011;1438;50.922;6.704;2022-09-16T16:24:29;1.20;;;0.60;;
2860;SDS011;1438;50.922;6.704;2022-09-16T16:26:56;4.40;;;0.90;;
2860;SDS011;1438;50.922;6.704;2022-09-16T16:29:22;5.63;;;1.00;;
2860;SDS011;1438;50.922;6.704;2022-09-16T16:32:00;1.47;;;0.70;;
2860;SDS011;1438;50.922;6.704;2022-09-16T16:34:38;4.63;;;1.00;;
2860;SDS011;1438;50.922;6.704;2022-09-16T16:37:06;1.50;;;0.77;;
2860;SDS011;1438;50.922;6.704;2022-09-16T16:39:34;1.37;;;0.80;;
2860;SDS011;1438;50.922;6.704;2022-09-16T16:41:59;1.10;;;0.60;;
2860;SDS011;1438;50.922;6.704;2022-09-16T16:44:26;6.83;;;1.10;;
2860;SDS011;1438;50.922;6.704;2022-09-16T16:46:52;2.33;;;0.83;;
2860;SDS011;1438;50.922;6.704;2022-09-16T16:49:19;1.80;;;0.80;;
2860;SDS011;1438;50.922;6.704;2022-09-16T16:51:52;1.47;;;0.80;;
2860;SDS011;1438;50.922;6.704;2022-09-16T16:54:24;2.97;;;0.70;;
2860;SDS011;1438;50.922;6.704;2022-09-16T16:56:51;4.13;;;1.00;;
2860;SDS011;1438;50.922;6.704;2022-09-16T16:59:17;1.70;;;0.83;;
2860;SDS011;1438;50.922;6.704;2022-09-16T17:01:43;5.43;;;1.00;;
2860;SDS011;1438;50.922;6.704;2022-09-16T17:04:10;2.30;;;0.80;;
2860;SDS011;1438;50.922;6.704;2022-09-16T17:06:36;1.53;;;1.03;;
2860;SDS011;1438;50.922;6.704;2022-09-16T17:09:04;2.57;;;0.80;;
2860;SDS011;1438;50.922;6.704;2022-09-16T17:11:30;3.77;;;1.20;;
2860;SDS011;1438;50.922;6.704;2022-09-16T17:13:58;6.50;;;0.90;;
2860;SDS011;1438;50.922;6.704;2022-09-16T17:16:25;7.03;;;0.97;;
2860;SDS011;1438;50.922;6.704;2022-09-16T17:18:52;4.23;;;1.10;;
2860;SDS011;1438;50.922;6.704;2022-09-16T17:21:23;8.50;;;1.00;;
2860;SDS011;1438;50.922;6.704;2022-09-16T17:23:52;7.50;;;1.50;;
2860;SDS011;1438;50.922;6.704;2022-09-16T17:26:19;2.10;;;0.90;;
2860;SDS011;1438;50.922;6.704;2022-09-16T17:28:46;2.10;;;1.10;;
2860;SDS011;1438;50.922;6.704;2022-09-16T17:31:17;5.10;;;1.00;;
2860;SDS011;1438;50.922;6.704;2022-09-16T17:33:46;2.60;;;0.90;;
2860;SDS011;1438;50.922;6.704;2022-09-16T17:36:13;1.23;;;0.87;;
2860;SDS011;1438;50.922;6.704;2022-09-16T17:38:40;3.90;;;1.27;;
2860;SDS011;1438;50.922;6.704;2022-09-16T17:41:15;1.53;;;0.80;;
2860;SDS011;1438;50.922;6.704;2022-09-16T17:43:41;4.13;;;1.20;;
2860;SDS011;1438;50.922;6.704;2022-09-16T17:46:12;3.17;;;1.20;;
2860;SDS011;1438;50.922;6.704;2022-09-16T17:48:41;2.70;;;0.83;;
2860;SDS011;1438;50.922;6.704;2022-09-16T17:51:06;1.33;;;0.87;;
2860;SDS011;1438;50.922;6.704;2022-09-16T17:53:33;2.92;;;0.80;;
2860;SDS011;1438;50.922;6.704;2022-09-16T17:56:08;3.20;;;1.52;;
2860;SDS011;1438;50.922;6.704;2022-09-16T17:58:36;3.47;;;1.20;;
2860;SDS011;1438;50.922;6.704;2022-09-16T18:01:04;2.00;;;0.90;;
2860;SDS011;1438;50.922;6.704;2022-09-16T18:03:31;3.67;;;1.40;;
2860;SDS011;1438;50.922;6.704;2022-09-16T18:06:02;3.87;;;1.13;;
2860;SDS011;1438;50.922;6.704;2022-09-16T18:08:29;5.30;;;1.37;;
2860;SDS011;1438;50.922;6.704;2022-09-16T18:10:55;5.70;;;1.53;;
2860;SDS011;1438;50.922;6.704;2022-09-16T18:13:20;3.00;;;1.50;;
2860;SDS011;1438;50.922;6.704;2022-09-16T18:15:46;5.47;;;1.13;;
2860;SDS011;1438;50.922;6.704;2022-09-16T18:18:11;6.47;;;1.27;;
2860;SDS011;1438;50.922;6.704;2022-09-16T18:20:38;2.67;;;0.88;;
2860;SDS011;1438;50.922;6.704;2022-09-16T18:23:04;4.63;;;1.33;;
2860;SDS011;1438;50.922;6.704;2022-09-16T18:25:29;3.17;;;1.37;;
2860;SDS011;1438;50.922;6.704;2022-09-16T18:27:55;6.20;;;1.40;;
2860;SDS011;1438;50.922;6.704;2022-09-16T18:30:21;4.33;;;1.40;;
2860;SDS011;1438;50.922;6.704;2022-09-16T18:32:47;2.75;;;1.17;;
2860;SDS011;1438;50.922;6.704;2022-09-16T18:35:13;3.70;;;1.00;;